sensor_id;sensor_type;location;lat;lon;timestamp;P1;durP1;ratioP1;P2;durP2;ratioP2
76617;SDS011;65509;42.816;74.648;2024-01-30T00:01:17;25.70;;;5.45;;
76617;SDS011;65509;42.816;74.648;2024-01-30T00:03:42;61.42;;;6.90;;
76617;SDS011;65509;42.816;74.648;2024-01-30T00:06:08;40.10;;;7.55;;
76617;SDS011;65509;42.816;74.648;2024-01-30T00:08:34;65.93;;;9.88;;
76617;SDS011;65509;42.816;74.648;2024-01-30T00:10:59;43.15;;;8.57;;
76617;SDS011;65509;42.816;74.648;2024-01-30T00:13:26;42.17;;;7.97;;
76617;SDS011;65509;42.816;74.648;2024-01-30T00:15:51;33.95;;;10.73;;
76617;SDS011;65509;42.816;74.648;2024-01-30T00:18:16;65.00;;;13.18;;
76617;SDS011;65509;42.816;74.648;2024-01-30T00:20:42;75.80;;;12.73;;
76617;SDS011;65509;42.816;74.648;2024-01-30T00:23:08;56.10;;;10.77;;
76617;SDS011;65509;42.816;74.648;2024-01-30T00:25:33;71.38;;;20.00;;
76617;SDS011;65509;42.816;74.648;2024-01-30T00:27:59;59.35;;;19.95;;
76617;SDS011;65509;42.816;74.648;2024-01-30T00:30:25;58.47;;;12.82;;
76617;SDS011;65509;42.816;74.648;2024-01-30T00:32:50;51.83;;;10.75;;
76617;SDS011;65509;42.816;74.648;2024-01-30T00:35:16;48.38;;;11.70;;
76617;SDS011;65509;42.816;74.648;2024-01-30T00:37:41;62.50;;;9.20;;
76617;SDS011;65509;42.816;74.648;2024-01-30T00:40:07;38.88;;;6.88;;
76617;SDS011;65509;42.816;74.648;2024-01-30T00:42:33;38.17;;;7.70;;
76617;SDS011;65509;42.816;74.648;2024-01-30T00:44:58;57.28;;;15.50;;
76617;SDS011;65509;42.816;74.648;2024-01-30T00:47:23;60.38;;;14.98;;
76617;SDS011;65509;42.816;74.648;2024-01-30T00:49:49;39.58;;;11.88;;
76617;SDS011;65509;42.816;74.648;2024-01-30T00:52:14;35.35;;;9.82;;
76617;SDS011;65509;42.816;74.648;2024-01-30T00:54:40;56.53;;;10.38;;
76617;SDS011;65509;42.816;74.648;2024-01-30T00:57:06;40.33;;;9.75;;
76617;SDS011;65509;42.816;74.648;2024-01-30T00:59:31;47.13;;;10.50;;
76617;SDS011;65509;42.816;74.648;2024-01-30T01:01:57;51.40;;;7.10;;
76617;SDS011;65509;42.816;74.648;2024-01-30T01:04:22;35.65;;;5.65;;
76617;SDS011;65509;42.816;74.648;2024-01-30T01:06:48;36.42;;;5.05;;
76617;SDS011;65509;42.816;74.648;2024-01-30T01:09:13;31.30;;;4.57;;
76617;SDS011;65509;42.816;74.648;2024-01-30T01:11:39;52.72;;;7.13;;
76617;SDS011;65509;42.816;74.648;2024-01-30T01:14:04;41.97;;;5.50;;
76617;SDS011;65509;42.816;74.648;2024-01-30T01:16:30;38.00;;;6.75;;
76617;SDS011;65509;42.816;74.648;2024-01-30T01:18:55;49.63;;;7.03;;
76617;SDS011;65509;42.816;74.648;2024-01-30T01:21:21;37.22;;;6.45;;
76617;SDS011;65509;42.816;74.648;2024-01-30T01:23:46;52.58;;;5.72;;
76617;SDS011;65509;42.816;74.648;2024-01-30T01:26:12;62.67;;;7.63;;
76617;SDS011;65509;42.816;74.648;2024-01-30T01:28:39;60.80;;;7.93;;
76617;SDS011;65509;42.816;74.648;2024-01-30T01:31:04;33.00;;;7.32;;
76617;SDS011;65509;42.816;74.648;2024-01-30T01:33:33;43.92;;;5.95;;
76617;SDS011;65509;42.816;74.648;2024-01-30T01:35:59;38.90;;;7.15;;
76617;SDS011;65509;42.816;74.648;2024-01-30T01:38:24;40.63;;;7.13;;
76617;SDS011;65509;42.816;74.648;2024-01-30T01:40:50;31.13;;;5.95;;
76617;SDS011;65509;42.816;74.648;2024-01-30T01:43:16;42.58;;;5.65;;
76617;SDS011;65509;42.816;74.648;2024-01-30T01:45:41;49.97;;;6.82;;
76617;SDS011;65509;42.816;74.648;2024-01-30T01:48:07;38.25;;;7.63;;
76617;SDS011;65509;42.816;74.648;2024-01-30T01:50:33;45.05;;;6.45;;
76617;SDS011;65509;42.816;74.648;2024-01-30T01:52:59;57.30;;;8.13;;
76617;SDS011;65509;42.816;74.648;2024-01-30T01:55:24;44.53;;;8.00;;
76617;SDS011;65509;42.816;74.648;2024-01-30T01:57:52;40.80;;;7.88;;
76617;SDS011;65509;42.816;74.648;2024-01-30T02:00:18;48.42;;;8.07;;
76617;SDS011;65509;42.816;74.648;2024-01-30T02:02:44;66.00;;;9.80;;
76617;SDS011;65509;42.816;74.648;2024-01-30T02:05:10;58.92;;;9.10;;
76617;SDS011;65509;42.816;74.648;2024-01-30T02:07:36;60.08;;;8.70;;
76617;SDS011;65509;42.816;74.648;2024-01-30T02:10:01;34.38;;;6.47;;
76617;SDS011;65509;42.816;74.648;2024-01-30T02:12:28;41.13;;;8.18;;
76617;SDS011;65509;42.816;74.648;2024-01-30T02:14:54;44.10;;;7.60;;
76617;SDS011;65509;42.816;74.648;2024-01-30T02:17:20;39.88;;;5.90;;
76617;SDS011;65509;42.816;74.648;2024-01-30T02:19:46;42.85;;;8.90;;
76617;SDS011;65509;42.816;74.648;2024-01-30T02:22:11;39.38;;;6.35;;
76617;SDS011;65509;42.816;74.648;2024-01-30T02:24:42;58.08;;;8.88;;
76617;SDS011;65509;42.816;74.648;2024-01-30T02:27:07;41.70;;;8.07;;
76617;SDS011;65509;42.816;74.648;2024-01-30T02:29:33;38.42;;;7.35;;
76617;SDS011;65509;42.816;74.648;2024-01-30T02:31:58;32.60;;;9.30;;
76617;SDS011;65509;42.816;74.648;2024-01-30T02:34:24;42.97;;;6.70;;
76617;SDS011;65509;42.816;74.648;2024-01-30T02:36:49;66.78;;;8.40;;
76617;SDS011;65509;42.816;74.648;2024-01-30T02:39:14;45.42;;;11.85;;
76617;SDS011;65509;42.816;74.648;2024-01-30T02:41:40;65.18;;;8.25;;
76617;SDS011;65509;42.816;74.648;2024-01-30T02:44:05;49.70;;;6.65;;
76617;SDS011;65509;42.816;74.648;2024-01-30T02:46:31;46.65;;;6.20;;
76617;SDS011;65509;42.816;74.648;2024-01-30T02:48:56;35.00;;;6.43;;
76617;SDS011;65509;42.816;74.648;2024-01-30T02:51:22;36.92;;;7.63;;
76617;SDS011;65509;42.816;74.648;2024-01-30T02:53:47;51.42;;;8.07;;
76617;SDS011;65509;42.816;74.648;2024-01-30T02:56:13;48.30;;;9.43;;
76617;SDS011;65509;42.816;74.648;2024-01-30T02:58:41;47.03;;;11.05;;
76617;SDS011;65509;42.816;74.648;2024-01-30T03:01:07;42.72;;;17.67;;
76617;SDS011;65509;42.816;74.648;2024-01-30T03:03:32;50.65;;;11.05;;
76617;SDS011;65509;42.816;74.648;2024-01-30T03:06:00;53.17;;;13.48;;
76617;SDS011;65509;42.816;74.648;2024-01-30T03:08:25;50.33;;;20.55;;
76617;SDS011;65509;42.816;74.648;2024-01-30T03:10:51;79.75;;;12.93;;
76617;SDS011;65509;42.816;74.648;2024-01-30T03:13:16;49.90;;;11.68;;
76617;SDS011;65509;42.816;74.648;2024-01-30T03:15:43;54.20;;;11.35;;
76617;SDS011;65509;42.816;74.648;2024-01-30T03:18:08;33.80;;;9.00;;
76617;SDS011;65509;42.816;74.648;2024-01-30T03:20:36;39.97;;;11.50;;
76617;SDS011;65509;42.816;74.648;2024-01-30T03:23:01;46.40;;;15.10;;
76617;SDS011;65509;42.816;74.648;2024-01-30T03:25:27;59.95;;;20.42;;
76617;SDS011;65509;42.816;74.648;2024-01-30T03:27:53;89.32;;;31.85;;
76617;SDS011;65509;42.816;74.648;2024-01-30T03:30:18;99.90;;;20.77;;
76617;SDS011;65509;42.816;74.648;2024-01-30T03:32:44;90.43;;;17.10;;
76617;SDS011;65509;42.816;74.648;2024-01-30T03:35:09;62.22;;;20.95;;
76617;SDS011;65509;42.816;74.648;2024-01-30T03:37:34;57.20;;;20.75;;
76617;SDS011;65509;42.816;74.648;2024-01-30T03:40:00;53.85;;;12.77;;
76617;SDS011;65509;42.816;74.648;2024-01-30T03:42:26;61.47;;;14.32;;
76617;SDS011;65509;42.816;74.648;2024-01-30T03:44:51;69.47;;;18.75;;
76617;SDS011;65509;42.816;74.648;2024-01-30T03:47:18;58.10;;;12.95;;
76617;SDS011;65509;42.816;74.648;2024-01-30T03:49:44;74.90;;;16.13;;
76617;SDS011;65509;42.816;74.648;2024-01-30T03:52:10;50.17;;;16.13;;
76617;SDS011;65509;42.816;74.648;2024-01-30T03:54:35;56.92;;;17.08;;
76617;SDS011;65509;42.816;74.648;2024-01-30T03:57:00;53.05;;;16.17;;
76617;SDS011;65509;42.816;74.648;2024-01-30T03:59:26;51.13;;;18.67;;
76617;SDS011;65509;42.816;74.648;2024-01-30T04:01:51;70.00;;;16.77;;
76617;SDS011;65509;42.816;74.648;2024-01-30T04:04:20;55.00;;;15.93;;
76617;SDS011;65509;42.816;74.648;2024-01-30T04:06:46;79.45;;;18.30;;
76617;SDS011;65509;42.816;74.648;2024-01-30T04:09:14;55.28;;;17.48;;
76617;SDS011;65509;42.816;74.648;2024-01-30T04:11:40;55.15;;;11.63;;
76617;SDS011;65509;42.816;74.648;2024-01-30T04:14:05;45.85;;;18.10;;
76617;SDS011;65509;42.816;74.648;2024-01-30T04:16:30;55.22;;;19.65;;
76617;SDS011;65509;42.816;74.648;2024-01-30T04:18:56;78.32;;;23.17;;
76617;SDS011;65509;42.816;74.648;2024-01-30T04:21:21;68.85;;;21.50;;
76617;SDS011;65509;42.816;74.648;2024-01-30T04:23:47;69.28;;;17.40;;
76617;SDS011;65509;42.816;74.648;2024-01-30T04:26:13;57.40;;;18.48;;
76617;SDS011;65509;42.816;74.648;2024-01-30T04:28:40;51.72;;;18.40;;
76617;SDS011;65509;42.816;74.648;2024-01-30T04:31:06;46.30;;;18.98;;
76617;SDS011;65509;42.816;74.648;2024-01-30T04:33:31;48.05;;;14.48;;
76617;SDS011;65509;42.816;74.648;2024-01-30T04:35:56;81.70;;;20.75;;
76617;SDS011;65509;42.816;74.648;2024-01-30T04:38:22;70.10;;;24.98;;
76617;SDS011;65509;42.816;74.648;2024-01-30T04:40:47;84.07;;;25.80;;
76617;SDS011;65509;42.816;74.648;2024-01-30T04:43:13;60.90;;;18.75;;
76617;SDS011;65509;42.816;74.648;2024-01-30T04:45:39;58.60;;;19.42;;
76617;SDS011;65509;42.816;74.648;2024-01-30T04:48:05;49.70;;;16.38;;
76617;SDS011;65509;42.816;74.648;2024-01-30T04:50:30;50.20;;;13.63;;
76617;SDS011;65509;42.816;74.648;2024-01-30T04:52:56;64.15;;;12.05;;
76617;SDS011;65509;42.816;74.648;2024-01-30T04:55:21;44.08;;;11.23;;
76617;SDS011;65509;42.816;74.648;2024-01-30T04:57:46;60.00;;;9.57;;
76617;SDS011;65509;42.816;74.648;2024-01-30T05:00:12;42.58;;;9.55;;
76617;SDS011;65509;42.816;74.648;2024-01-30T05:02:37;39.05;;;9.43;;
76617;SDS011;65509;42.816;74.648;2024-01-30T05:05:03;43.08;;;7.82;;
76617;SDS011;65509;42.816;74.648;2024-01-30T05:07:29;34.78;;;9.70;;
76617;SDS011;65509;42.816;74.648;2024-01-30T05:10:02;62.15;;;11.45;;
76617;SDS011;65509;42.816;74.648;2024-01-30T05:12:28;42.65;;;9.45;;
76617;SDS011;65509;42.816;74.648;2024-01-30T05:14:53;55.60;;;10.02;;
76617;SDS011;65509;42.816;74.648;2024-01-30T05:17:19;40.15;;;8.90;;
76617;SDS011;65509;42.816;74.648;2024-01-30T05:19:44;36.72;;;8.80;;
76617;SDS011;65509;42.816;74.648;2024-01-30T05:22:10;38.85;;;9.30;;
76617;SDS011;65509;42.816;74.648;2024-01-30T05:24:36;31.88;;;8.52;;
76617;SDS011;65509;42.816;74.648;2024-01-30T05:27:01;59.85;;;10.88;;
76617;SDS011;65509;42.816;74.648;2024-01-30T05:29:27;37.42;;;9.80;;
76617;SDS011;65509;42.816;74.648;2024-01-30T05:31:53;71.88;;;11.80;;
76617;SDS011;65509;42.816;74.648;2024-01-30T05:34:18;65.38;;;12.15;;
76617;SDS011;65509;42.816;74.648;2024-01-30T05:36:43;45.83;;;12.25;;
76617;SDS011;65509;42.816;74.648;2024-01-30T05:39:09;48.63;;;13.25;;
76617;SDS011;65509;42.816;74.648;2024-01-30T05:41:35;49.60;;;13.65;;
76617;SDS011;65509;42.816;74.648;2024-01-30T05:44:00;79.43;;;15.07;;
76617;SDS011;65509;42.816;74.648;2024-01-30T05:46:26;56.25;;;14.80;;
76617;SDS011;65509;42.816;74.648;2024-01-30T05:48:54;61.53;;;14.40;;
76617;SDS011;65509;42.816;74.648;2024-01-30T05:51:19;41.80;;;13.05;;
76617;SDS011;65509;42.816;74.648;2024-01-30T05:53:45;51.70;;;13.20;;
76617;SDS011;65509;42.816;74.648;2024-01-30T05:56:10;36.03;;;12.00;;
76617;SDS011;65509;42.816;74.648;2024-01-30T05:58:36;52.50;;;10.82;;
76617;SDS011;65509;42.816;74.648;2024-01-30T06:01:02;52.90;;;9.40;;
76617;SDS011;65509;42.816;74.648;2024-01-30T06:03:28;39.22;;;10.38;;
76617;SDS011;65509;42.816;74.648;2024-01-30T06:05:53;52.03;;;9.27;;
76617;SDS011;65509;42.816;74.648;2024-01-30T06:08:19;52.25;;;11.00;;
76617;SDS011;65509;42.816;74.648;2024-01-30T06:10:44;49.90;;;12.43;;
76617;SDS011;65509;42.816;74.648;2024-01-30T06:13:09;50.53;;;9.88;;
76617;SDS011;65509;42.816;74.648;2024-01-30T06:15:35;40.47;;;8.63;;
76617;SDS011;65509;42.816;74.648;2024-01-30T06:18:00;62.65;;;8.45;;
76617;SDS011;65509;42.816;74.648;2024-01-30T06:20:25;44.63;;;6.68;;
76617;SDS011;65509;42.816;74.648;2024-01-30T06:22:51;62.58;;;7.22;;
76617;SDS011;65509;42.816;74.648;2024-01-30T06:25:16;43.97;;;6.85;;
76617;SDS011;65509;42.816;74.648;2024-01-30T06:27:42;44.85;;;9.07;;
76617;SDS011;65509;42.816;74.648;2024-01-30T06:30:08;39.78;;;9.20;;
76617;SDS011;65509;42.816;74.648;2024-01-30T06:32:35;51.17;;;8.75;;
76617;SDS011;65509;42.816;74.648;2024-01-30T06:35:00;68.97;;;10.50;;
76617;SDS011;65509;42.816;74.648;2024-01-30T06:37:26;39.13;;;9.00;;
76617;SDS011;65509;42.816;74.648;2024-01-30T06:39:51;59.58;;;10.23;;
76617;SDS011;65509;42.816;74.648;2024-01-30T06:42:17;46.33;;;10.38;;
76617;SDS011;65509;42.816;74.648;2024-01-30T06:44:43;56.92;;;13.05;;
76617;SDS011;65509;42.816;74.648;2024-01-30T06:47:09;49.25;;;13.13;;
76617;SDS011;65509;42.816;74.648;2024-01-30T06:49:34;48.30;;;14.43;;
76617;SDS011;65509;42.816;74.648;2024-01-30T06:52:09;48.80;;;14.02;;
76617;SDS011;65509;42.816;74.648;2024-01-30T06:54:34;52.35;;;12.82;;
76617;SDS011;65509;42.816;74.648;2024-01-30T06:56:59;58.05;;;12.75;;
76617;SDS011;65509;42.816;74.648;2024-01-30T06:59:25;49.72;;;14.30;;
76617;SDS011;65509;42.816;74.648;2024-01-30T07:01:50;64.70;;;17.00;;
76617;SDS011;65509;42.816;74.648;2024-01-30T07:04:16;63.97;;;17.55;;
76617;SDS011;65509;42.816;74.648;2024-01-30T07:06:43;61.92;;;16.45;;
76617;SDS011;65509;42.816;74.648;2024-01-30T07:09:09;45.63;;;15.45;;
76617;SDS011;65509;42.816;74.648;2024-01-30T07:11:34;61.33;;;17.58;;
76617;SDS011;65509;42.816;74.648;2024-01-30T07:14:00;90.80;;;18.77;;
76617;SDS011;65509;42.816;74.648;2024-01-30T07:16:25;62.92;;;24.67;;
76617;SDS011;65509;42.816;74.648;2024-01-30T07:18:51;62.58;;;17.73;;
76617;SDS011;65509;42.816;74.648;2024-01-30T07:21:16;50.78;;;16.60;;
76617;SDS011;65509;42.816;74.648;2024-01-30T07:23:42;48.45;;;17.25;;
76617;SDS011;65509;42.816;74.648;2024-01-30T07:26:08;42.70;;;14.05;;
76617;SDS011;65509;42.816;74.648;2024-01-30T07:28:34;43.00;;;13.02;;
76617;SDS011;65509;42.816;74.648;2024-01-30T07:31:00;56.92;;;12.07;;
76617;SDS011;65509;42.816;74.648;2024-01-30T07:33:25;40.10;;;13.02;;
76617;SDS011;65509;42.816;74.648;2024-01-30T07:35:52;51.03;;;14.50;;
76617;SDS011;65509;42.816;74.648;2024-01-30T07:38:17;58.70;;;15.75;;
76617;SDS011;65509;42.816;74.648;2024-01-30T07:40:43;41.78;;;13.70;;
76617;SDS011;65509;42.816;74.648;2024-01-30T07:43:08;59.45;;;24.27;;
76617;SDS011;65509;42.816;74.648;2024-01-30T07:48:02;81.82;;;31.02;;
76617;SDS011;65509;42.816;74.648;2024-01-30T07:50:27;58.75;;;28.35;;
76617;SDS011;65509;42.816;74.648;2024-01-30T07:52:53;78.25;;;24.25;;
76617;SDS011;65509;42.816;74.648;2024-01-30T07:55:23;62.97;;;21.55;;
76617;SDS011;65509;42.816;74.648;2024-01-30T07:57:54;100.80;;;39.20;;
76617;SDS011;65509;42.816;74.648;2024-01-30T08:00:20;60.88;;;26.92;;
76617;SDS011;65509;42.816;74.648;2024-01-30T08:02:46;56.95;;;22.55;;
76617;SDS011;65509;42.816;74.648;2024-01-30T08:05:11;112.32;;;43.95;;
76617;SDS011;65509;42.816;74.648;2024-01-30T08:07:37;136.40;;;48.33;;
76617;SDS011;65509;42.816;74.648;2024-01-30T08:10:02;142.18;;;52.35;;
76617;SDS011;65509;42.816;74.648;2024-01-30T08:12:28;78.75;;;20.63;;
76617;SDS011;65509;42.816;74.648;2024-01-30T08:14:54;84.82;;;25.63;;
76617;SDS011;65509;42.816;74.648;2024-01-30T08:17:19;106.13;;;26.63;;
76617;SDS011;65509;42.816;74.648;2024-01-30T08:19:45;88.22;;;38.00;;
76617;SDS011;65509;42.816;74.648;2024-01-30T08:22:11;68.35;;;26.02;;
76617;SDS011;65509;42.816;74.648;2024-01-30T08:24:36;54.25;;;22.42;;
76617;SDS011;65509;42.816;74.648;2024-01-30T08:27:02;124.28;;;46.78;;
76617;SDS011;65509;42.816;74.648;2024-01-30T08:29:27;79.93;;;33.90;;
76617;SDS011;65509;42.816;74.648;2024-01-30T08:31:53;95.88;;;37.45;;
76617;SDS011;65509;42.816;74.648;2024-01-30T08:34:20;56.17;;;21.05;;
76617;SDS011;65509;42.816;74.648;2024-01-30T08:36:46;114.63;;;41.47;;
76617;SDS011;65509;42.816;74.648;2024-01-30T08:39:11;51.60;;;23.45;;
76617;SDS011;65509;42.816;74.648;2024-01-30T08:41:36;56.47;;;26.50;;
76617;SDS011;65509;42.816;74.648;2024-01-30T08:44:02;76.00;;;27.55;;
76617;SDS011;65509;42.816;74.648;2024-01-30T08:46:32;74.97;;;24.00;;
76617;SDS011;65509;42.816;74.648;2024-01-30T08:48:57;82.15;;;30.73;;
76617;SDS011;65509;42.816;74.648;2024-01-30T08:51:23;85.55;;;36.53;;
76617;SDS011;65509;42.816;74.648;2024-01-30T08:53:48;147.93;;;72.47;;
76617;SDS011;65509;42.816;74.648;2024-01-30T08:56:18;85.55;;;28.30;;
76617;SDS011;65509;42.816;74.648;2024-01-30T08:58:43;113.97;;;28.88;;
76617;SDS011;65509;42.816;74.648;2024-01-30T09:01:09;88.55;;;34.08;;
76617;SDS011;65509;42.816;74.648;2024-01-30T09:03:35;81.55;;;33.25;;
76617;SDS011;65509;42.816;74.648;2024-01-30T09:06:02;127.32;;;56.25;;
76617;SDS011;65509;42.816;74.648;2024-01-30T09:08:28;100.45;;;64.50;;
76617;SDS011;65509;42.816;74.648;2024-01-30T09:10:53;86.60;;;44.30;;
76617;SDS011;65509;42.816;74.648;2024-01-30T09:13:20;91.30;;;49.45;;
76617;SDS011;65509;42.816;74.648;2024-01-30T09:15:45;100.78;;;34.25;;
76617;SDS011;65509;42.816;74.648;2024-01-30T09:18:10;119.82;;;36.00;;
76617;SDS011;65509;42.816;74.648;2024-01-30T09:20:36;107.22;;;55.25;;
76617;SDS011;65509;42.816;74.648;2024-01-30T09:23:01;139.13;;;36.75;;
76617;SDS011;65509;42.816;74.648;2024-01-30T09:25:26;99.40;;;33.88;;
76617;SDS011;65509;42.816;74.648;2024-01-30T09:27:52;78.15;;;30.65;;
76617;SDS011;65509;42.816;74.648;2024-01-30T09:30:17;80.18;;;29.27;;
76617;SDS011;65509;42.816;74.648;2024-01-30T09:32:43;81.55;;;26.20;;
76617;SDS011;65509;42.816;74.648;2024-01-30T09:35:08;90.20;;;22.63;;
76617;SDS011;65509;42.816;74.648;2024-01-30T09:37:34;82.18;;;34.05;;
76617;SDS011;65509;42.816;74.648;2024-01-30T09:39:59;72.13;;;18.83;;
76617;SDS011;65509;42.816;74.648;2024-01-30T09:44:50;58.60;;;16.08;;
76617;SDS011;65509;42.816;74.648;2024-01-30T09:47:16;64.15;;;16.92;;
76617;SDS011;65509;42.816;74.648;2024-01-30T09:49:43;71.97;;;16.40;;
76617;SDS011;65509;42.816;74.648;2024-01-30T09:52:08;65.75;;;16.70;;
76617;SDS011;65509;42.816;74.648;2024-01-30T09:54:34;70.30;;;14.43;;
76617;SDS011;65509;42.816;74.648;2024-01-30T09:57:00;68.70;;;13.45;;
76617;SDS011;65509;42.816;74.648;2024-01-30T09:59:25;44.03;;;12.45;;
76617;SDS011;65509;42.816;74.648;2024-01-30T10:01:51;48.97;;;14.95;;
76617;SDS011;65509;42.816;74.648;2024-01-30T10:04:17;71.20;;;15.43;;
76617;SDS011;65509;42.816;74.648;2024-01-30T10:06:42;59.67;;;14.30;;
76617;SDS011;65509;42.816;74.648;2024-01-30T10:09:07;78.00;;;14.98;;
76617;SDS011;65509;42.816;74.648;2024-01-30T10:11:34;61.80;;;16.65;;
76617;SDS011;65509;42.816;74.648;2024-01-30T10:14:00;77.90;;;25.15;;
76617;SDS011;65509;42.816;74.648;2024-01-30T10:16:25;66.97;;;16.60;;
76617;SDS011;65509;42.816;74.648;2024-01-30T10:18:51;54.13;;;15.65;;
76617;SDS011;65509;42.816;74.648;2024-01-30T10:21:16;58.85;;;14.80;;
76617;SDS011;65509;42.816;74.648;2024-01-30T10:23:43;71.53;;;14.98;;
76617;SDS011;65509;42.816;74.648;2024-01-30T10:26:08;59.67;;;15.07;;
76617;SDS011;65509;42.816;74.648;2024-01-30T10:28:34;37.20;;;13.07;;
76617;SDS011;65509;42.816;74.648;2024-01-30T10:30:59;63.60;;;13.25;;
76617;SDS011;65509;42.816;74.648;2024-01-30T10:33:26;55.22;;;14.90;;
76617;SDS011;65509;42.816;74.648;2024-01-30T10:35:53;55.60;;;13.80;;
76617;SDS011;65509;42.816;74.648;2024-01-30T10:38:19;71.80;;;23.20;;
76617;SDS011;65509;42.816;74.648;2024-01-30T10:40:45;63.75;;;14.73;;
76617;SDS011;65509;42.816;74.648;2024-01-30T10:43:11;95.63;;;15.88;;
76617;SDS011;65509;42.816;74.648;2024-01-30T10:45:39;67.50;;;13.43;;
76617;SDS011;65509;42.816;74.648;2024-01-30T10:48:05;66.13;;;13.15;;
76617;SDS011;65509;42.816;74.648;2024-01-30T10:50:32;55.63;;;12.25;;
76617;SDS011;65509;42.816;74.648;2024-01-30T10:52:59;41.47;;;12.38;;
76617;SDS011;65509;42.816;74.648;2024-01-30T10:55:25;41.97;;;11.52;;
76617;SDS011;65509;42.816;74.648;2024-01-30T10:57:53;49.55;;;10.75;;
76617;SDS011;65509;42.816;74.648;2024-01-30T11:00:19;52.08;;;10.50;;
76617;SDS011;65509;42.816;74.648;2024-01-30T11:02:48;52.17;;;11.80;;
76617;SDS011;65509;42.816;74.648;2024-01-30T11:05:14;85.72;;;12.45;;
76617;SDS011;65509;42.816;74.648;2024-01-30T11:07:40;49.97;;;11.43;;
76617;SDS011;65509;42.816;74.648;2024-01-30T11:10:06;71.68;;;10.63;;
76617;SDS011;65509;42.816;74.648;2024-01-30T11:12:37;45.58;;;9.70;;
76617;SDS011;65509;42.816;74.648;2024-01-30T11:15:06;77.53;;;12.75;;
76617;SDS011;65509;42.816;74.648;2024-01-30T11:17:50;50.25;;;10.63;;
76617;SDS011;65509;42.816;74.648;2024-01-30T11:20:19;53.38;;;10.32;;
76617;SDS011;65509;42.816;74.648;2024-01-30T11:22:46;53.85;;;12.35;;
76617;SDS011;65509;42.816;74.648;2024-01-30T11:25:12;76.63;;;11.38;;
76617;SDS011;65509;42.816;74.648;2024-01-30T11:27:38;43.47;;;9.75;;
76617;SDS011;65509;42.816;74.648;2024-01-30T11:30:04;62.13;;;9.25;;
76617;SDS011;65509;42.816;74.648;2024-01-30T11:32:30;42.35;;;9.63;;
76617;SDS011;65509;42.816;74.648;2024-01-30T11:34:55;50.83;;;10.13;;
76617;SDS011;65509;42.816;74.648;2024-01-30T11:37:21;66.53;;;10.27;;
76617;SDS011;65509;42.816;74.648;2024-01-30T11:39:47;51.90;;;10.07;;
76617;SDS011;65509;42.816;74.648;2024-01-30T11:42:13;70.70;;;9.93;;
76617;SDS011;65509;42.816;74.648;2024-01-30T11:44:38;61.03;;;10.45;;
76617;SDS011;65509;42.816;74.648;2024-01-30T11:47:04;72.72;;;11.35;;
76617;SDS011;65509;42.816;74.648;2024-01-30T11:49:29;67.95;;;11.48;;
76617;SDS011;65509;42.816;74.648;2024-01-30T11:51:55;52.47;;;12.20;;
76617;SDS011;65509;42.816;74.648;2024-01-30T11:54:20;65.00;;;13.75;;
76617;SDS011;65509;42.816;74.648;2024-01-30T11:56:45;49.40;;;10.73;;
76617;SDS011;65509;42.816;74.648;2024-01-30T11:59:11;69.80;;;11.73;;
76617;SDS011;65509;42.816;74.648;2024-01-30T12:01:36;60.95;;;13.05;;
76617;SDS011;65509;42.816;74.648;2024-01-30T12:04:02;62.33;;;14.57;;
76617;SDS011;65509;42.816;74.648;2024-01-30T12:06:28;83.53;;;13.75;;
76617;SDS011;65509;42.816;74.648;2024-01-30T12:08:57;57.05;;;12.77;;
76617;SDS011;65509;42.816;74.648;2024-01-30T12:11:23;55.03;;;12.25;;
76617;SDS011;65509;42.816;74.648;2024-01-30T12:13:49;62.35;;;10.65;;
76617;SDS011;65509;42.816;74.648;2024-01-30T12:16:14;58.83;;;9.93;;
76617;SDS011;65509;42.816;74.648;2024-01-30T12:18:40;49.90;;;10.35;;
76617;SDS011;65509;42.816;74.648;2024-01-30T12:21:05;64.80;;;10.68;;
76617;SDS011;65509;42.816;74.648;2024-01-30T12:23:32;49.47;;;10.85;;
76617;SDS011;65509;42.816;74.648;2024-01-30T12:25:58;58.53;;;10.77;;
76617;SDS011;65509;42.816;74.648;2024-01-30T12:28:24;43.22;;;9.98;;
76617;SDS011;65509;42.816;74.648;2024-01-30T12:30:49;48.95;;;9.65;;
76617;SDS011;65509;42.816;74.648;2024-01-30T12:33:17;73.60;;;11.20;;
76617;SDS011;65509;42.816;74.648;2024-01-30T12:35:46;52.67;;;11.27;;
76617;SDS011;65509;42.816;74.648;2024-01-30T12:38:15;74.72;;;9.52;;
76617;SDS011;65509;42.816;74.648;2024-01-30T12:40:40;53.55;;;11.00;;
76617;SDS011;65509;42.816;74.648;2024-01-30T12:43:06;64.93;;;9.98;;
76617;SDS011;65509;42.816;74.648;2024-01-30T12:45:31;59.50;;;10.38;;
76617;SDS011;65509;42.816;74.648;2024-01-30T12:47:57;44.75;;;10.02;;
76617;SDS011;65509;42.816;74.648;2024-01-30T12:50:23;63.72;;;13.07;;
76617;SDS011;65509;42.816;74.648;2024-01-30T12:52:49;57.20;;;13.57;;
76617;SDS011;65509;42.816;74.648;2024-01-30T12:55:14;79.55;;;14.13;;
76617;SDS011;65509;42.816;74.648;2024-01-30T12:57:39;59.63;;;12.88;;
76617;SDS011;65509;42.816;74.648;2024-01-30T13:00:05;67.15;;;14.02;;
76617;SDS011;65509;42.816;74.648;2024-01-30T13:02:33;72.18;;;16.20;;
76617;SDS011;65509;42.816;74.648;2024-01-30T13:05:02;70.47;;;16.77;;
76617;SDS011;65509;42.816;74.648;2024-01-30T13:07:27;48.85;;;15.95;;
76617;SDS011;65509;42.816;74.648;2024-01-30T13:09:53;56.28;;;13.40;;
76617;SDS011;65509;42.816;74.648;2024-01-30T13:12:18;83.72;;;15.25;;
76617;SDS011;65509;42.816;74.648;2024-01-30T13:14:43;50.58;;;12.75;;
76617;SDS011;65509;42.816;74.648;2024-01-30T13:17:09;81.70;;;13.88;;
76617;SDS011;65509;42.816;74.648;2024-01-30T13:19:34;52.35;;;13.27;;
76617;SDS011;65509;42.816;74.648;2024-01-30T13:22:00;52.92;;;12.95;;
76617;SDS011;65509;42.816;74.648;2024-01-30T13:24:25;57.53;;;13.23;;
76617;SDS011;65509;42.816;74.648;2024-01-30T13:26:51;57.70;;;14.07;;
76617;SDS011;65509;42.816;74.648;2024-01-30T13:29:18;81.15;;;14.13;;
76617;SDS011;65509;42.816;74.648;2024-01-30T13:31:43;55.08;;;13.43;;
76617;SDS011;65509;42.816;74.648;2024-01-30T13:34:11;82.05;;;14.20;;
76617;SDS011;65509;42.816;74.648;2024-01-30T13:36:36;62.97;;;11.60;;
76617;SDS011;65509;42.816;74.648;2024-01-30T13:39:02;63.90;;;11.52;;
76617;SDS011;65509;42.816;74.648;2024-01-30T13:41:27;62.00;;;11.50;;
76617;SDS011;65509;42.816;74.648;2024-01-30T13:43:54;53.10;;;9.50;;
76617;SDS011;65509;42.816;74.648;2024-01-30T13:46:20;90.47;;;13.38;;
76617;SDS011;65509;42.816;74.648;2024-01-30T13:48:45;75.07;;;14.70;;
76617;SDS011;65509;42.816;74.648;2024-01-30T13:51:11;66.38;;;10.52;;
76617;SDS011;65509;42.816;74.648;2024-01-30T13:53:38;38.28;;;8.38;;
76617;SDS011;65509;42.816;74.648;2024-01-30T13:56:03;49.85;;;8.55;;
76617;SDS011;65509;42.816;74.648;2024-01-30T13:58:29;47.13;;;8.00;;
76617;SDS011;65509;42.816;74.648;2024-01-30T14:00:55;49.88;;;7.82;;
76617;SDS011;65509;42.816;74.648;2024-01-30T14:03:21;89.57;;;14.68;;
76617;SDS011;65509;42.816;74.648;2024-01-30T14:05:46;58.72;;;10.55;;
76617;SDS011;65509;42.816;74.648;2024-01-30T14:08:12;83.85;;;14.63;;